sensor_id;sensor_type;location;lat;lon;timestamp;P1;durP1;ratioP1;P2;durP2;ratioP2
54460;SDS011;40371;49.414;11.010;2023-03-23T00:01:16;5.57;;;4.30;;
54460;SDS011;40371;49.414;11.010;2023-03-23T00:03:48;4.93;;;4.37;;
54460;SDS011;40371;49.414;11.010;2023-03-23T00:06:15;5.33;;;4.40;;
54460;SDS011;40371;49.414;11.010;2023-03-23T00:08:45;10.47;;;4.87;;
54460;SDS011;40371;49.414;11.010;2023-03-23T00:11:14;5.50;;;4.27;;
54460;SDS011;40371;49.414;11.010;2023-03-23T00:13:45;4.40;;;4.00;;
54460;SDS011;40371;49.414;11.010;2023-03-23T00:16:13;5.03;;;4.60;;
54460;SDS011;40371;49.414;11.010;2023-03-23T00:18:45;5.03;;;4.20;;
54460;SDS011;40371;49.414;11.010;2023-03-23T00:21:11;5.60;;;4.80;;
54460;SDS011;40371;49.414;11.010;2023-03-23T00:23:37;4.33;;;3.93;;
54460;SDS011;40371;49.414;11.010;2023-03-23T00:26:04;4.57;;;4.10;;
54460;SDS011;40371;49.414;11.010;2023-03-23T00:28:30;5.70;;;5.03;;
54460;SDS011;40371;49.414;11.010;2023-03-23T00:30:56;5.30;;;4.10;;
54460;SDS011;40371;49.414;11.010;2023-03-23T00:33:26;4.80;;;4.27;;
54460;SDS011;40371;49.414;11.010;2023-03-23T00:35:55;4.97;;;4.10;;
54460;SDS011;40371;49.414;11.010;2023-03-23T00:38:21;4.43;;;4.03;;
54460;SDS011;40371;49.414;11.010;2023-03-23T00:40:48;4.00;;;3.70;;
54460;SDS011;40371;49.414;11.010;2023-03-23T00:43:15;5.90;;;4.40;;
54460;SDS011;40371;49.414;11.010;2023-03-23T00:45:41;5.07;;;4.20;;
54460;SDS011;40371;49.414;11.010;2023-03-23T00:48:18;4.87;;;3.97;;
54460;SDS011;40371;49.414;11.010;2023-03-23T00:50:44;3.80;;;3.50;;
54460;SDS011;40371;49.414;11.010;2023-03-23T00:53:10;4.00;;;3.60;;
54460;SDS011;40371;49.414;11.010;2023-03-23T00:55:36;4.07;;;3.23;;
54460;SDS011;40371;49.414;11.010;2023-03-23T00:58:02;3.60;;;3.17;;
54460;SDS011;40371;49.414;11.010;2023-03-23T01:00:27;3.40;;;2.70;;
54460;SDS011;40371;49.414;11.010;2023-03-23T01:02:53;3.00;;;2.70;;
54460;SDS011;40371;49.414;11.010;2023-03-23T01:05:19;2.57;;;2.30;;
54460;SDS011;40371;49.414;11.010;2023-03-23T01:07:45;3.53;;;1.90;;
54460;SDS011;40371;49.414;11.010;2023-03-23T01:10:12;3.63;;;2.03;;
54460;SDS011;40371;49.414;11.010;2023-03-23T01:12:42;3.43;;;2.20;;
54460;SDS011;40371;49.414;11.010;2023-03-23T01:15:09;2.70;;;2.07;;
54460;SDS011;40371;49.414;11.010;2023-03-23T01:17:39;2.30;;;1.97;;
54460;SDS011;40371;49.414;11.010;2023-03-23T01:20:05;2.67;;;1.77;;
54460;SDS011;40371;49.414;11.010;2023-03-23T01:22:32;2.30;;;2.10;;
54460;SDS011;40371;49.414;11.010;2023-03-23T01:24:57;2.40;;;2.10;;
54460;SDS011;40371;49.414;11.010;2023-03-23T01:27:23;2.13;;;1.93;;
54460;SDS011;40371;49.414;11.010;2023-03-23T01:29:48;2.17;;;2.00;;
54460;SDS011;40371;49.414;11.010;2023-03-23T01:32:14;2.80;;;2.23;;
54460;SDS011;40371;49.414;11.010;2023-03-23T01:34:40;3.20;;;2.40;;
54460;SDS011;40371;49.414;11.010;2023-03-23T01:37:06;3.07;;;2.03;;
54460;SDS011;40371;49.414;11.010;2023-03-23T01:39:31;1.90;;;1.80;;
54460;SDS011;40371;49.414;11.010;2023-03-23T01:41:57;2.43;;;1.93;;
54460;SDS011;40371;49.414;11.010;2023-03-23T01:46:56;3.10;;;2.30;;
54460;SDS011;40371;49.414;11.010;2023-03-23T01:49:33;2.33;;;2.13;;
54460;SDS011;40371;49.414;11.010;2023-03-23T01:52:06;2.23;;;1.87;;
54460;SDS011;40371;49.414;11.010;2023-03-23T01:54:36;3.13;;;1.87;;
54460;SDS011;40371;49.414;11.010;2023-03-23T01:57:05;2.30;;;1.97;;
54460;SDS011;40371;49.414;11.010;2023-03-23T01:59:33;1.73;;;1.60;;
54460;SDS011;40371;49.414;11.010;2023-03-23T02:02:14;1.73;;;1.60;;
54460;SDS011;40371;49.414;11.010;2023-03-23T02:04:41;1.83;;;1.73;;
54460;SDS011;40371;49.414;11.010;2023-03-23T02:07:07;1.80;;;1.67;;
54460;SDS011;40371;49.414;11.010;2023-03-23T02:09:33;2.50;;;1.70;;
54460;SDS011;40371;49.414;11.010;2023-03-23T02:11:59;1.63;;;1.50;;
54460;SDS011;40371;49.414;11.010;2023-03-23T02:14:26;2.40;;;1.83;;
54460;SDS011;40371;49.414;11.010;2023-03-23T02:28:04;2.63;;;2.07;;
54460;SDS011;40371;49.414;11.010;2023-03-23T02:33:46;3.27;;;2.10;;
54460;SDS011;40371;49.414;11.010;2023-03-23T02:36:17;1.90;;;1.80;;
54460;SDS011;40371;49.414;11.010;2023-03-23T02:41:17;1.70;;;1.60;;
54460;SDS011;40371;49.414;11.010;2023-03-23T02:43:46;2.17;;;1.97;;
54460;SDS011;40371;49.414;11.010;2023-03-23T02:46:13;1.90;;;1.80;;
54460;SDS011;40371;49.414;11.010;2023-03-23T02:48:40;2.27;;;1.90;;
54460;SDS011;40371;49.414;11.010;2023-03-23T02:51:09;2.00;;;1.90;;
54460;SDS011;40371;49.414;11.010;2023-03-23T02:53:37;2.47;;;2.27;;
54460;SDS011;40371;49.414;11.010;2023-03-23T02:56:08;2.03;;;1.93;;
54460;SDS011;40371;49.414;11.010;2023-03-23T02:58:35;2.13;;;1.93;;
54460;SDS011;40371;49.414;11.010;2023-03-23T03:01:15;2.00;;;1.80;;
54460;SDS011;40371;49.414;11.010;2023-03-23T03:03:51;1.80;;;1.70;;
54460;SDS011;40371;49.414;11.010;2023-03-23T03:09:33;2.57;;;1.97;;
54460;SDS011;40371;49.414;11.010;2023-03-23T03:14:49;1.80;;;1.70;;
54460;SDS011;40371;49.414;11.010;2023-03-23T03:17:25;2.13;;;1.73;;
54460;SDS011;40371;49.414;11.010;2023-03-23T03:19:55;1.80;;;1.70;;
54460;SDS011;40371;49.414;11.010;2023-03-23T03:22:25;2.30;;;1.80;;
54460;SDS011;40371;49.414;11.010;2023-03-23T03:24:55;3.07;;;1.80;;
54460;SDS011;40371;49.414;11.010;2023-03-23T03:27:23;3.43;;;1.97;;
54460;SDS011;40371;49.414;11.010;2023-03-23T03:30:02;2.10;;;1.73;;
54460;SDS011;40371;49.414;11.010;2023-03-23T03:32:37;3.00;;;2.40;;
54460;SDS011;40371;49.414;11.010;2023-03-23T03:35:08;2.93;;;2.10;;
54460;SDS011;40371;49.414;11.010;2023-03-23T03:37:38;1.93;;;1.83;;
54460;SDS011;40371;49.414;11.010;2023-03-23T03:40:09;2.30;;;2.10;;
54460;SDS011;40371;49.414;11.010;2023-03-23T03:42:39;1.90;;;1.80;;
54460;SDS011;40371;49.414;11.010;2023-03-23T03:45:08;3.13;;;1.97;;
54460;SDS011;40371;49.414;11.010;2023-03-23T03:47:35;1.60;;;1.50;;
54460;SDS011;40371;49.414;11.010;2023-03-23T03:50:01;2.23;;;2.00;;
54460;SDS011;40371;49.414;11.010;2023-03-23T03:52:27;1.90;;;1.70;;
54460;SDS011;40371;49.414;11.010;2023-03-23T03:54:53;2.10;;;1.73;;
54460;SDS011;40371;49.414;11.010;2023-03-23T03:57:19;1.70;;;1.60;;
54460;SDS011;40371;49.414;11.010;2023-03-23T04:00:04;2.03;;;1.63;;
54460;SDS011;40371;49.414;11.010;2023-03-23T04:02:43;1.67;;;1.57;;
54460;SDS011;40371;49.414;11.010;2023-03-23T04:05:18;3.00;;;1.87;;
54460;SDS011;40371;49.414;11.010;2023-03-23T04:07:46;2.00;;;1.80;;
54460;SDS011;40371;49.414;11.010;2023-03-23T04:10:16;2.80;;;1.80;;
54460;SDS011;40371;49.414;11.010;2023-03-23T04:12:49;2.27;;;2.00;;
54460;SDS011;40371;49.414;11.010;2023-03-23T04:15:33;1.77;;;1.67;;
54460;SDS011;40371;49.414;11.010;2023-03-23T04:17:59;1.90;;;1.70;;
54460;SDS011;40371;49.414;11.010;2023-03-23T04:20:25;1.63;;;1.50;;
54460;SDS011;40371;49.414;11.010;2023-03-23T04:22:52;3.23;;;1.70;;
54460;SDS011;40371;49.414;11.010;2023-03-23T04:25:21;2.60;;;1.50;;
54460;SDS011;40371;49.414;11.010;2023-03-23T04:27:48;1.57;;;1.47;;
54460;SDS011;40371;49.414;11.010;2023-03-23T04:30:23;2.00;;;1.80;;
54460;SDS011;40371;49.414;11.010;2023-03-23T04:33:15;2.47;;;1.80;;
54460;SDS011;40371;49.414;11.010;2023-03-23T04:35:45;4.27;;;2.13;;
54460;SDS011;40371;49.414;11.010;2023-03-23T04:38:18;2.57;;;1.70;;
54460;SDS011;40371;49.414;11.010;2023-03-23T04:40:51;2.47;;;1.80;;
54460;SDS011;40371;49.414;11.010;2023-03-23T04:43:30;3.50;;;1.80;;
54460;SDS011;40371;49.414;11.010;2023-03-23T04:46:03;2.57;;;1.93;;
54460;SDS011;40371;49.414;11.010;2023-03-23T04:48:34;2.00;;;1.80;;
54460;SDS011;40371;49.414;11.010;2023-03-23T04:51:08;2.57;;;1.77;;
54460;SDS011;40371;49.414;11.010;2023-03-23T04:53:34;3.13;;;2.17;;
54460;SDS011;40371;49.414;11.010;2023-03-23T04:56:01;2.07;;;1.83;;
54460;SDS011;40371;49.414;11.010;2023-03-23T04:58:31;2.37;;;1.90;;
54460;SDS011;40371;49.414;11.010;2023-03-23T05:01:22;4.33;;;1.80;;
54460;SDS011;40371;49.414;11.010;2023-03-23T05:04:02;1.83;;;1.50;;
54460;SDS011;40371;49.414;11.010;2023-03-23T05:06:29;2.23;;;1.60;;
54460;SDS011;40371;49.414;11.010;2023-03-23T05:09:00;4.27;;;1.90;;
54460;SDS011;40371;49.414;11.010;2023-03-23T05:11:26;2.00;;;1.90;;
54460;SDS011;40371;49.414;11.010;2023-03-23T05:13:51;3.17;;;1.60;;
54460;SDS011;40371;49.414;11.010;2023-03-23T05:16:17;1.97;;;1.87;;
54460;SDS011;40371;49.414;11.010;2023-03-23T05:18:43;1.50;;;1.40;;
54460;SDS011;40371;49.414;11.010;2023-03-23T05:21:14;1.53;;;1.40;;
54460;SDS011;40371;49.414;11.010;2023-03-23T05:23:44;1.60;;;1.50;;
54460;SDS011;40371;49.414;11.010;2023-03-23T05:26:16;1.80;;;1.70;;
54460;SDS011;40371;49.414;11.010;2023-03-23T05:28:41;3.53;;;1.80;;
54460;SDS011;40371;49.414;11.010;2023-03-23T05:31:18;6.17;;;2.20;;
54460;SDS011;40371;49.414;11.010;2023-03-23T05:33:44;2.40;;;1.50;;
54460;SDS011;40371;49.414;11.010;2023-03-23T05:36:42;2.40;;;2.00;;
54460;SDS011;40371;49.414;11.010;2023-03-23T05:39:23;2.73;;;1.77;;
54460;SDS011;40371;49.414;11.010;2023-03-23T05:42:02;1.87;;;1.70;;
54460;SDS011;40371;49.414;11.010;2023-03-23T05:44:40;3.40;;;1.70;;
54460;SDS011;40371;49.414;11.010;2023-03-23T05:47:05;3.03;;;1.73;;
54460;SDS011;40371;49.414;11.010;2023-03-23T05:49:32;2.00;;;1.80;;
54460;SDS011;40371;49.414;11.010;2023-03-23T05:51:58;2.20;;;1.63;;
54460;SDS011;40371;49.414;11.010;2023-03-23T05:54:25;3.07;;;1.67;;
54460;SDS011;40371;49.414;11.010;2023-03-23T05:56:52;2.57;;;1.90;;
54460;SDS011;40371;49.414;11.010;2023-03-23T05:59:35;3.27;;;1.80;;
54460;SDS011;40371;49.414;11.010;2023-03-23T06:02:02;3.33;;;1.93;;
54460;SDS011;40371;49.414;11.010;2023-03-23T06:04:28;4.63;;;2.00;;
54460;SDS011;40371;49.414;11.010;2023-03-23T06:07:04;4.80;;;1.70;;
54460;SDS011;40371;49.414;11.010;2023-03-23T06:09:30;1.77;;;1.67;;
54460;SDS011;40371;49.414;11.010;2023-03-23T06:12:31;1.83;;;1.73;;
54460;SDS011;40371;49.414;11.010;2023-03-23T06:15:19;2.17;;;1.60;;
54460;SDS011;40371;49.414;11.010;2023-03-23T06:18:11;1.90;;;1.60;;
54460;SDS011;40371;49.414;11.010;2023-03-23T06:20:56;1.70;;;1.57;;
54460;SDS011;40371;49.414;11.010;2023-03-23T06:23:45;2.30;;;1.60;;
54460;SDS011;40371;49.414;11.010;2023-03-23T06:26:13;2.27;;;1.57;;
54460;SDS011;40371;49.414;11.010;2023-03-23T06:28:42;3.97;;;1.90;;
54460;SDS011;40371;49.414;11.010;2023-03-23T06:31:08;2.10;;;2.00;;
54460;SDS011;40371;49.414;11.010;2023-03-23T06:33:35;2.27;;;2.10;;
54460;SDS011;40371;49.414;11.010;2023-03-23T06:36:35;1.93;;;1.70;;
54460;SDS011;40371;49.414;11.010;2023-03-23T06:39:29;2.93;;;2.00;;
54460;SDS011;40371;49.414;11.010;2023-03-23T06:42:11;2.10;;;2.00;;
54460;SDS011;40371;49.414;11.010;2023-03-23T06:44:42;2.07;;;1.80;;
54460;SDS011;40371;49.414;11.010;2023-03-23T06:47:10;4.03;;;2.57;;
54460;SDS011;40371;49.414;11.010;2023-03-23T06:49:40;1.70;;;1.50;;
54460;SDS011;40371;49.414;11.010;2023-03-23T06:52:23;4.00;;;1.90;;
54460;SDS011;40371;49.414;11.010;2023-03-23T06:54:50;2.30;;;2.10;;
54460;SDS011;40371;49.414;11.010;2023-03-23T06:57:18;2.43;;;1.93;;
54460;SDS011;40371;49.414;11.010;2023-03-23T06:59:46;2.50;;;2.30;;
54460;SDS011;40371;49.414;11.010;2023-03-23T07:02:13;2.77;;;2.10;;
54460;SDS011;40371;49.414;11.010;2023-03-23T07:04:40;2.03;;;1.83;;
54460;SDS011;40371;49.414;11.010;2023-03-23T07:07:10;2.37;;;2.17;;
54460;SDS011;40371;49.414;11.010;2023-03-23T07:09:47;2.40;;;2.10;;
54460;SDS011;40371;49.414;11.010;2023-03-23T07:12:15;2.30;;;2.10;;
54460;SDS011;40371;49.414;11.010;2023-03-23T07:14:46;4.10;;;2.33;;
54460;SDS011;40371;49.414;11.010;2023-03-23T07:17:11;2.07;;;1.87;;
54460;SDS011;40371;49.414;11.010;2023-03-23T07:19:45;3.17;;;2.10;;
54460;SDS011;40371;49.414;11.010;2023-03-23T07:22:13;2.57;;;2.37;;
54460;SDS011;40371;49.414;11.010;2023-03-23T07:24:42;3.67;;;2.07;;
54460;SDS011;40371;49.414;11.010;2023-03-23T07:27:17;3.33;;;2.33;;
54460;SDS011;40371;49.414;11.010;2023-03-23T07:29:43;3.23;;;2.40;;
54460;SDS011;40371;49.414;11.010;2023-03-23T07:32:15;2.40;;;1.90;;
54460;SDS011;40371;49.414;11.010;2023-03-23T07:34:40;2.57;;;2.27;;
54460;SDS011;40371;49.414;11.010;2023-03-23T07:37:25;5.17;;;2.23;;
54460;SDS011;40371;49.414;11.010;2023-03-23T07:39:51;2.53;;;2.33;;
54460;SDS011;40371;49.414;11.010;2023-03-23T07:42:17;3.83;;;2.60;;
54460;SDS011;40371;49.414;11.010;2023-03-23T07:44:49;2.93;;;2.13;;
54460;SDS011;40371;49.414;11.010;2023-03-23T07:47:15;3.77;;;2.50;;
54460;SDS011;40371;49.414;11.010;2023-03-23T07:49:42;4.57;;;2.57;;
54460;SDS011;40371;49.414;11.010;2023-03-23T07:52:21;3.70;;;2.30;;
54460;SDS011;40371;49.414;11.010;2023-03-23T07:54:47;4.23;;;2.50;;
54460;SDS011;40371;49.414;11.010;2023-03-23T07:57:22;3.47;;;2.47;;
54460;SDS011;40371;49.414;11.010;2023-03-23T07:59:51;5.30;;;2.63;;
54460;SDS011;40371;49.414;11.010;2023-03-23T08:02:17;3.57;;;2.47;;
54460;SDS011;40371;49.414;11.010;2023-03-23T08:05:01;5.70;;;2.83;;
54460;SDS011;40371;49.414;11.010;2023-03-23T08:07:41;4.53;;;2.93;;
54460;SDS011;40371;49.414;11.010;2023-03-23T08:10:15;3.13;;;2.60;;
54460;SDS011;40371;49.414;11.010;2023-03-23T08:13:01;2.60;;;2.30;;
54460;SDS011;40371;49.414;11.010;2023-03-23T08:15:46;3.63;;;2.80;;
54460;SDS011;40371;49.414;11.010;2023-03-23T08:18:41;2.90;;;2.70;;
54460;SDS011;40371;49.414;11.010;2023-03-23T08:21:22;2.30;;;2.10;;
54460;SDS011;40371;49.414;11.010;2023-03-23T08:24:18;4.07;;;2.73;;
54460;SDS011;40371;49.414;11.010;2023-03-23T08:27:03;2.83;;;2.60;;
54460;SDS011;40371;49.414;11.010;2023-03-23T08:29:44;2.80;;;2.50;;
54460;SDS011;40371;49.414;11.010;2023-03-23T08:32:29;3.27;;;2.97;;
54460;SDS011;40371;49.414;11.010;2023-03-23T08:35:14;3.40;;;2.80;;
54460;SDS011;40371;49.414;11.010;2023-03-23T08:37:56;3.23;;;2.60;;
54460;SDS011;40371;49.414;11.010;2023-03-23T08:40:41;5.27;;;2.50;;
54460;SDS011;40371;49.414;11.010;2023-03-23T08:43:26;3.50;;;2.90;;
54460;SDS011;40371;49.414;11.010;2023-03-23T08:46:27;4.20;;;2.60;;
54460;SDS011;40371;49.414;11.010;2023-03-23T08:49:13;5.90;;;2.87;;
54460;SDS011;40371;49.414;11.010;2023-03-23T08:52:04;3.20;;;2.80;;
54460;SDS011;40371;49.414;11.010;2023-03-23T08:54:52;3.90;;;2.60;;
54460;SDS011;40371;49.414;11.010;2023-03-23T08:57:56;4.80;;;2.97;;
54460;SDS011;40371;49.414;11.010;2023-03-23T09:00:42;5.50;;;2.10;;
54460;SDS011;40371;49.414;11.010;2023-03-23T09:03:14;2.73;;;2.47;;
54460;SDS011;40371;49.414;11.010;2023-03-23T09:06:02;4.33;;;2.80;;
54460;SDS011;40371;49.414;11.010;2023-03-23T09:08:35;3.07;;;2.60;;
54460;SDS011;40371;49.414;11.010;2023-03-23T09:11:05;5.57;;;2.10;;
54460;SDS011;40371;49.414;11.010;2023-03-23T09:13:33;4.47;;;2.33;;
54460;SDS011;40371;49.414;11.010;2023-03-23T09:15:59;2.77;;;2.20;;
54460;SDS011;40371;49.414;11.010;2023-03-23T09:18:24;3.60;;;2.13;;
54460;SDS011;40371;49.414;11.010;2023-03-23T09:20:50;5.33;;;2.50;;
54460;SDS011;40371;49.414;11.010;2023-03-23T09:23:18;2.70;;;2.50;;
54460;SDS011;40371;49.414;11.010;2023-03-23T09:25:45;3.23;;;2.93;;
54460;SDS011;40371;49.414;11.010;2023-03-23T09:28:12;2.40;;;2.20;;
54460;SDS011;40371;49.414;11.010;2023-03-23T09:30:38;4.33;;;2.47;;
54460;SDS011;40371;49.414;11.010;2023-03-23T09:33:05;2.77;;;2.50;;
54460;SDS011;40371;49.414;11.010;2023-03-23T09:35:33;3.57;;;2.20;;
54460;SDS011;40371;49.414;11.010;2023-03-23T09:38:01;2.50;;;2.30;;
54460;SDS011;40371;49.414;11.010;2023-03-23T09:46:08;6.00;;;2.50;;
54460;SDS011;40371;49.414;11.010;2023-03-23T09:48:53;3.80;;;2.37;;
54460;SDS011;40371;49.414;11.010;2023-03-23T09:53:55;4.60;;;2.40;;
54460;SDS011;40371;49.414;11.010;2023-03-23T09:56:28;2.80;;;2.60;;
54460;SDS011;40371;49.414;11.010;2023-03-23T09:59:02;3.37;;;2.50;;
54460;SDS011;40371;49.414;11.010;2023-03-23T10:01:43;4.50;;;2.40;;
54460;SDS011;40371;49.414;11.010;2023-03-23T10:04:23;3.33;;;2.20;;
54460;SDS011;40371;49.414;11.010;2023-03-23T10:06:58;3.27;;;2.60;;
54460;SDS011;40371;49.414;11.010;2023-03-23T10:09:29;2.93;;;2.37;;
54460;SDS011;40371;49.414;11.010;2023-03-23T10:12:10;2.60;;;1.93;;
54460;SDS011;40371;49.414;11.010;2023-03-23T10:14:46;3.13;;;2.07;;
54460;SDS011;40371;49.414;11.010;2023-03-23T10:17:14;2.40;;;2.20;;
54460;SDS011;40371;49.414;11.010;2023-03-23T10:22:32;2.67;;;2.40;;
54460;SDS011;40371;49.414;11.010;2023-03-23T10:27:45;2.97;;;1.90;;
54460;SDS011;40371;49.414;11.010;2023-03-23T10:33:36;3.87;;;2.10;;
54460;SDS011;40371;49.414;11.010;2023-03-23T10:36:23;2.37;;;2.07;;
54460;SDS011;40371;49.414;11.010;2023-03-23T10:39:02;4.03;;;2.20;;
54460;SDS011;40371;49.414;11.010;2023-03-23T10:41:34;3.00;;;1.90;;
54460;SDS011;40371;49.414;11.010;2023-03-23T10:44:00;2.07;;;1.80;;
54460;SDS011;40371;49.414;11.010;2023-03-23T10:50:21;1.70;;;1.57;;
54460;SDS011;40371;49.414;11.010;2023-03-23T10:52:38;1.93;;;1.40;;
54460;SDS011;40371;49.414;11.010;2023-03-23T10:55:10;1.60;;;1.50;;
54460;SDS011;40371;49.414;11.010;2023-03-23T10:57:37;1.80;;;1.53;;
54460;SDS011;40371;49.414;11.010;2023-03-23T11:02:45;1.97;;;1.30;;
54460;SDS011;40371;49.414;11.010;2023-03-23T11:05:23;2.17;;;1.60;;
54460;SDS011;40371;49.414;11.010;2023-03-23T11:07:55;1.97;;;1.43;;
54460;SDS011;40371;49.414;11.010;2023-03-23T11:10:23;3.10;;;1.70;;
54460;SDS011;40371;49.414;11.010;2023-03-23T11:12:51;1.70;;;1.60;;
54460;SDS011;40371;49.414;11.010;2023-03-23T11:15:27;1.47;;;1.33;;
54460;SDS011;40371;49.414;11.010;2023-03-23T11:17:56;2.20;;;1.40;;
54460;SDS011;40371;49.414;11.010;2023-03-23T11:20:24;1.83;;;1.57;;
54460;SDS011;40371;49.414;11.010;2023-03-23T11:22:51;2.53;;;1.60;;
54460;SDS011;40371;49.414;11.010;2023-03-23T11:25:18;1.80;;;1.70;;
54460;SDS011;40371;49.414;11.010;2023-03-23T11:27:43;2.70;;;1.80;;
54460;SDS011;40371;49.414;11.010;2023-03-23T11:30:11;1.80;;;1.70;;
54460;SDS011;40371;49.414;11.010;2023-03-23T11:32:47;2.27;;;1.70;;
54460;SDS011;40371;49.414;11.010;2023-03-23T11:35:17;1.87;;;1.60;;
54460;SDS011;40371;49.414;11.010;2023-03-23T11:37:55;1.53;;;1.37;;
54460;SDS011;40371;49.414;11.010;2023-03-23T11:40:27;2.83;;;1.63;;
54460;SDS011;40371;49.414;11.010;2023-03-23T11:43:00;2.33;;;1.70;;
54460;SDS011;40371;49.414;11.010;2023-03-23T11:45:33;2.77;;;1.60;;
54460;SDS011;40371;49.414;11.010;2023-03-23T11:50:35;3.50;;;1.70;;
54460;SDS011;40371;49.414;11.010;2023-03-23T11:53:16;2.80;;;1.57;;
54460;SDS011;40371;49.414;11.010;2023-03-23T11:56:45;2.23;;;2.03;;
54460;SDS011;40371;49.414;11.010;2023-03-23T11:59:02;3.90;;;1.93;;
54460;SDS011;40371;49.414;11.010;2023-03-23T12:01:49;1.77;;;1.67;;
54460;SDS011;40371;49.414;11.010;2023-03-23T12:04:28;2.63;;;1.90;;
54460;SDS011;40371;49.414;11.010;2023-03-23T12:16:04;3.90;;;1.97;;
54460;SDS011;40371;49.414;11.010;2023-03-23T12:40:15;0.90;;;0.90;;
54460;SDS011;40371;49.414;11.010;2023-03-23T12:42:54;2.07;;;1.13;;
54460;SDS011;40371;49.414;11.010;2023-03-23T12:48:33;1.00;;;1.00;;
54460;SDS011;40371;49.414;11.010;2023-03-23T12:54:07;1.07;;;1.07;;
54460;SDS011;40371;49.414;11.010;2023-03-23T13:02:35;1.90;;;1.23;;
54460;SDS011;40371;49.414;11.010;2023-03-23T13:07:59;1.37;;;1.27;;
54460;SDS011;40371;49.414;11.010;2023-03-23T13:10:30;2.10;;;1.47;;
54460;SDS011;40371;49.414;11.010;2023-03-23T13:13:03;1.50;;;1.40;;
54460;SDS011;40371;49.414;11.010;2023-03-23T13:15:37;1.33;;;1.07;;
54460;SDS011;40371;49.414;11.010;2023-03-23T13:20:55;1.03;;;0.97;;
54460;SDS011;40371;49.414;11.010;2023-03-23T13:23:39;2.50;;;1.30;;
54460;SDS011;40371;49.414;11.010;2023-03-23T13:26:10;1.33;;;1.23;;
54460;SDS011;40371;49.414;11.010;2023-03-23T13:28:58;1.77;;;1.37;;
54460;SDS011;40371;49.414;11.010;2023-03-23T13:31:31;1.40;;;1.17;;
54460;SDS011;40371;49.414;11.010;2023-03-23T13:34:02;1.07;;;1.03;;
54460;SDS011;40371;49.414;11.010;2023-03-23T13:37:20;3.93;;;0.90;;
54460;SDS011;40371;49.414;11.010;2023-03-23T13:39:29;1.77;;;1.17;;
54460;SDS011;40371;49.414;11.010;2023-03-23T13:47:21;1.67;;;1.23;;
54460;SDS011;40371;49.414;11.010;2023-03-23T13:50:01;1.40;;;1.20;;
54460;SDS011;40371;49.414;11.010;2023-03-23T14:05:42;3.43;;;2.73;;
54460;SDS011;40371;49.414;11.010;2023-03-23T14:10:35;2.97;;;2.63;;
54460;SDS011;40371;49.414;11.010;2023-03-23T14:13:02;2.00;;;1.90;;
54460;SDS011;40371;49.414;11.010;2023-03-23T14:15:30;2.37;;;1.50;;
54460;SDS011;40371;49.414;11.010;2023-03-23T14:18:03;2.73;;;1.80;;
54460;SDS011;40371;49.414;11.010;2023-03-23T14:20:33;2.70;;;1.57;;
54460;SDS011;40371;49.414;11.010;2023-03-23T14:23:02;3.57;;;1.33;;
54460;SDS011;40371;49.414;11.010;2023-03-23T14:25:29;2.13;;;1.40;;
54460;SDS011;40371;49.414;11.010;2023-03-23T14:27:57;2.33;;;1.60;;
54460;SDS011;40371;49.414;11.010;2023-03-23T14:30:24;1.90;;;1.70;;
54460;SDS011;40371;49.414;11.010;2023-03-23T14:32:53;1.87;;;1.77;;
54460;SDS011;40371;49.414;11.010;2023-03-23T14:35:29;1.50;;;1.40;;
54460;SDS011;40371;49.414;11.010;2023-03-23T14:37:56;2.37;;;1.20;;
54460;SDS011;40371;49.414;11.010;2023-03-23T14:40:25;1.53;;;1.33;;
54460;SDS011;40371;49.414;11.010;2023-03-23T14:42:52;1.50;;;1.30;;
54460;SDS011;40371;49.414;11.010;2023-03-23T14:45:20;2.73;;;1.53;;
54460;SDS011;40371;49.414;11.010;2023-03-23T14:47:51;1.47;;;1.37;;
54460;SDS011;40371;49.414;11.010;2023-03-23T14:52:47;1.30;;;1.30;;
54460;SDS011;40371;49.414;11.010;2023-03-23T14:55:17;1.33;;;1.23;;
54460;SDS011;40371;49.414;11.010;2023-03-23T14:57:47;1.67;;;1.53;;
54460;SDS011;40371;49.414;11.010;2023-03-23T15:00:20;2.60;;;1.37;;
54460;SDS011;40371;49.414;11.010;2023-03-23T15:02:48;1.27;;;1.17;;
54460;SDS011;40371;49.414;11.010;2023-03-23T15:05:19;1.60;;;1.50;;
54460;SDS011;40371;49.414;11.010;2023-03-23T15:08:05;1.50;;;1.40;;
54460;SDS011;40371;49.414;11.010;2023-03-23T15:10:36;1.77;;;1.20;;
54460;SDS011;40371;49.414;11.010;2023-03-23T15:13:02;1.80;;;1.30;;
54460;SDS011;40371;49.414;11.010;2023-03-23T15:17:55;2.53;;;2.17;;
54460;SDS011;40371;49.414;11.010;2023-03-23T15:22:49;2.00;;;1.90;;
54460;SDS011;40371;49.414;11.010;2023-03-23T15:25:50;2.10;;;1.80;;
54460;SDS011;40371;49.414;11.010;2023-03-23T15:28:19;2.00;;;1.80;;
54460;SDS011;40371;49.414;11.010;2023-03-23T15:30:53;3.13;;;1.77;;
54460;SDS011;40371;49.414;11.010;2023-03-23T15:33:21;2.30;;;2.10;;
54460;SDS011;40371;49.414;11.010;2023-03-23T15:35:52;1.90;;;1.80;;
54460;SDS011;40371;49.414;11.010;2023-03-23T15:38:31;2.30;;;2.03;;
54460;SDS011;40371;49.414;11.010;2023-03-23T15:41:00;1.70;;;1.60;;
54460;SDS011;40371;49.414;11.010;2023-03-23T15:43:31;1.77;;;1.67;;
54460;SDS011;40371;49.414;11.010;2023-03-23T15:51:35;2.17;;;1.93;;
54460;SDS011;40371;49.414;11.010;2023-03-23T15:54:02;2.07;;;1.87;;
54460;SDS011;40371;49.414;11.010;2023-03-23T15:56:28;2.67;;;1.80;;
54460;SDS011;40371;49.414;11.010;2023-03-23T15:58:56;2.27;;;1.73;;
54460;SDS011;40371;49.414;11.010;2023-03-23T16:01:24;2.07;;;1.93;;
54460;SDS011;40371;49.414;11.010;2023-03-23T16:04:08;1.87;;;1.77;;
54460;SDS011;40371;49.414;11.010;2023-03-23T16:06:39;2.10;;;2.00;;
54460;SDS011;40371;49.414;11.010;2023-03-23T16:09:06;5.17;;;2.30;;
54460;SDS011;40371;49.414;11.010;2023-03-23T16:11:35;2.07;;;1.97;;
54460;SDS011;40371;49.414;11.010;2023-03-23T16:14:00;3.27;;;1.93;;
54460;SDS011;40371;49.414;11.010;2023-03-23T16:16:41;2.23;;;2.03;;
54460;SDS011;40371;49.414;11.010;2023-03-23T16:19:11;2.20;;;1.87;;
54460;SDS011;40371;49.414;11.010;2023-03-23T16:21:38;1.93;;;1.83;;
54460;SDS011;40371;49.414;11.010;2023-03-23T16:24:04;2.73;;;2.30;;
54460;SDS011;40371;49.414;11.010;2023-03-23T16:26:30;2.53;;;2.30;;
54460;SDS011;40371;49.414;11.010;2023-03-23T16:28:56;4.23;;;2.00;;
54460;SDS011;40371;49.414;11.010;2023-03-23T16:31:21;2.53;;;2.33;;
54460;SDS011;40371;49.414;11.010;2023-03-23T16:33:47;2.40;;;2.03;;
54460;SDS011;40371;49.414;11.010;2023-03-23T16:36:13;2.73;;;2.37;;
54460;SDS011;40371;49.414;11.010;2023-03-23T16:38:39;2.10;;;2.00;;
54460;SDS011;40371;49.414;11.010;2023-03-23T16:41:05;7.33;;;2.27;;
54460;SDS011;40371;49.414;11.010;2023-03-23T16:43:31;2.37;;;2.17;;
54460;SDS011;40371;49.414;11.010;2023-03-23T16:45:57;3.63;;;2.70;;
54460;SDS011;40371;49.414;11.010;2023-03-23T16:48:23;3.17;;;2.50;;
54460;SDS011;40371;49.414;11.010;2023-03-23T16:50:50;4.93;;;3.00;;
54460;SDS011;40371;49.414;11.010;2023-03-23T16:53:18;2.60;;;2.00;;
54460;SDS011;40371;49.414;11.010;2023-03-23T16:55:44;2.67;;;2.47;;
54460;SDS011;40371;49.414;11.010;2023-03-23T16:58:12;3.30;;;2.50;;
54460;SDS011;40371;49.414;11.010;2023-03-23T17:00:39;5.17;;;2.47;;
54460;SDS011;40371;49.414;11.010;2023-03-23T17:03:05;2.83;;;2.60;;
54460;SDS011;40371;49.414;11.010;2023-03-23T17:05:31;3.07;;;2.87;;
54460;SDS011;40371;49.414;11.010;2023-03-23T17:07:59;4.13;;;3.57;;
54460;SDS011;40371;49.414;11.010;2023-03-23T17:10:25;3.67;;;3.30;;
54460;SDS011;40371;49.414;11.010;2023-03-23T17:12:54;3.90;;;3.47;;
54460;SDS011;40371;49.414;11.010;2023-03-23T17:15:19;7.13;;;4.90;;